Glabbeek-Zuurbemde, Belgium
Current Conditions -  °F | °C
As of 4:35 PM on Thursday 30 Oct 2014 (Local Time) from EBDT Reporting Station
Broken Clouds Broken Clouds  
Wind Chill: 61°   Ceiling: 15000
Heat Index: 61°   Visibility: 6mi
Dew Point: 57°   Wind: 5mph
Humidity: 88%   Direction: 180°S
Pressure: 30.18"   Gusts: NA
Location:  50.87°N, 4.94°E
Report Text: EBDT 301535Z 18004KT 9999 BKN150 16/14 Q1022 BLU FCST CANCEL
Loading
Personal Weather Stations






























Interactive Weather Map
Tropical Storm Tracking
New forecast layout! Learn more

10-Day Weather Forecast

Advertisements
Track Severe Weather on mobile